Stations météo

réclame
Mon MeteoGroup
Villafranca, Espagne (8241): Température de l'air & dewpoint: 12.10.2017 07:00:00 - 18.10.2017 07:00:00 (CEST)Villafranca, Espagne (8241): Vitesse du vent & gusts: 12.10.2017 07:00:00 - 18.10.2017 07:00:00 (CEST)Villafranca, Espagne (8241): Direction du vent: 12.10.2017 07:00:00 - 18.10.2017 07:00:00 (CEST)Villafranca, Espagne (8241): visibility: 12.10.2017 07:00:00 - 18.10.2017 07:00:00 (CEST)Villafranca, Espagne (8241): Ensoleillement: 12.10.2017 07:00:00 - 18.10.2017 07:00:00 (CEST)Villafranca, Espagne (8241): Quantités de précipitations: 12.10.2017 07:00:00 - 18.10.2017 07:00:00 (CEST)
Date & Time tt [°C] td [°C] ff [km/h] ff [knt] fx [km/h] fx [knt] dd vv [km] sd [min] rr [mm]
18.10.2017 07:00:00 - - - - - - - - - -
18.10.2017 06:00:00 12,5 11,1 11 6 19 10 SE 7 0 0,0
18.10.2017 05:00:00 12,1 10,5 9 5 15 8 SSE 6 0 0,0
18.10.2017 04:00:00 11,4 9,4 5 3 13 7 ESE 12 0 0,0
18.10.2017 03:00:00 11,5 9,0 3 2 12 6 ESE 16 0 0,0
18.10.2017 02:00:00 11,7 9,3 5 3 18 10 SE 20 0 -
18.10.2017 01:00:00 12,1 8,9 13 7 21 11 SE 20 0 0,0
18.10.2017 00:00:00 12,6 8,9 6 3 15 8 SE 20 0 0,2
17.10.2017 23:00:00 12,6 9,0 13 7 51 28 WSW 20 0 1,0
17.10.2017 22:00:00 12,8 11,2 10 5 21 11 SE 6 0 0,0
17.10.2017 21:00:00 12,8 11,0 11 6 17 9 ESE 4,1 0 0,0
17.10.2017 20:00:00 13,1 11,0 10 6 22 12 ESE 7 0 -
17.10.2017 19:00:00 14,0 10,8 13 7 26 14 ESE 7 0 0,0
17.10.2017 18:00:00 15,1 10,9 16 9 30 16 SE 19 34 0,0
17.10.2017 17:00:00 17,5 10,4 17 9 30 16 ESE 4,7 60 0,0
17.10.2017 16:00:00 18,1 9,2 18 10 33 18 ESE 5 60 0,0
17.10.2017 15:00:00 17,8 8,7 21 11 33 18 ESE 15 60 0,0
17.10.2017 14:00:00 17,7 8,5 19 11 31 17 ESE 20 60 -
17.10.2017 13:00:00 16,9 8,8 16 8 28 15 ESE 20 60 0,0
17.10.2017 12:00:00 15,8 8,5 15 8 27 14 ESE 20 60 0,0
17.10.2017 11:00:00 13,7 7,8 13 7 21 11 ESE 15 60 0,0
17.10.2017 10:00:00 11,7 7,6 11 6 16 8 E 20 60 0,0
17.10.2017 09:00:00 9,0 7,3 9 5 13 7 E 11 4 0,0
17.10.2017 08:00:00 8,2 6,4 9 5 15 8 SE 13 0 -
17.10.2017 07:00:00 8,3 6,4 7 4 14 7 ESE 9 0 0,0
17.10.2017 06:00:00 8,7 5,9 9 5 13 7 ESE 20 0 0,0
17.10.2017 05:00:00 8,9 4,6 7 4 11 6 ESE 20 0 0,0
17.10.2017 04:00:00 7,7 1,3 6 3 11 6 SE 20 0 0,0
17.10.2017 03:00:00 7,7 3,6 7 4 11 6 ESE 20 0 0,0
17.10.2017 02:00:00 7,9 5,5 2 1 6 3 NW 15 0 -
17.10.2017 01:00:00 10,5 9,0 5 3 14 7 ESE 3,0 0 0,0
17.10.2017 00:00:00 11,2 9,2 6 4 16 8 SE 11 0 0,0
16.10.2017 23:00:00 11,7 10,2 9 5 16 9 SSE 2,9 0 0,0
16.10.2017 22:00:00 12,6 10,9 9 5 16 9 SE 6 0 0,0
16.10.2017 21:00:00 12,5 10,8 9 5 13 7 SE 7 0 0,0
16.10.2017 20:00:00 13,7 10,6 7 4 16 8 ESE 13 0 -
16.10.2017 19:00:00 15,7 10,6 10 6 21 12 SE 20 53 0,0
16.10.2017 18:00:00 17,8 10,4 13 7 24 13 ESE 20 60 0,0
16.10.2017 17:00:00 18,9 9,9 14 8 26 14 ESE 16 60 0,0
16.10.2017 16:00:00 19,6 7,3 16 9 27 15 ESE 20 60 0,0
16.10.2017 15:00:00 - - - - - - - - - -
16.10.2017 14:00:00 19,0 7,7 15 8 24 13 ESE 20 60 -
16.10.2017 13:00:00 - - - - - - - - - -
16.10.2017 12:00:00 16,1 9,3 13 7 21 11 ESE 15 60 0,0
16.10.2017 11:00:00 14,7 9,6 13 7 21 11 E 16 60 0,0
16.10.2017 10:00:00 13,3 9,6 8 4 16 9 ESE 17 60 0,0
16.10.2017 09:00:00 10,6 8,0 9 5 13 7 SE 19 2 0,0
16.10.2017 08:00:00 10,6 8,1 8 5 21 11 SE 20 0 -
16.10.2017 07:00:00 10,6 8,7 11 6 18 10 ESE 17 0 0,0
16.10.2017 06:00:00 10,6 8,7 9 5 13 7 SE 10 0 0,0
16.10.2017 05:00:00 10,5 9,3 11 6 18 10 SE 4,9 0 0,0
16.10.2017 04:00:00 11,1 9,6 10 6 17 9 SSE 4,9 0 0,0
16.10.2017 03:00:00 11,1 9,6 11 6 19 11 SE 7 0 0,0
16.10.2017 02:00:00 12,1 10,2 11 6 20 11 SSE 7 0 -
16.10.2017 01:00:00 12,7 10,9 12 6 20 11 SE 9 0 0,0
16.10.2017 00:00:00 13,2 11,9 10 5 17 9 ESE 2,8 0 0,0
15.10.2017 23:00:00 13,7 12,1 11 6 16 9 ESE 4,1 0 0,0
15.10.2017 22:00:00 14,4 12,4 10 5 19 10 ESE 8 0 0,0
15.10.2017 21:00:00 14,6 12,8 14 8 21 12 ESE 4,9 0 0,0
15.10.2017 20:00:00 15,3 12,7 12 6 20 11 ESE 10 0 -
15.10.2017 19:00:00 15,9 12,6 10 6 24 13 ESE 16 12 0,0
15.10.2017 18:00:00 17,4 12,5 15 8 29 16 ESE 20 51 0,0
15.10.2017 17:00:00 19,2 12,4 18 10 29 16 ESE 20 60 0,0
15.10.2017 16:00:00 20,4 11,9 16 9 30 16 ESE - 60 0,0
15.10.2017 15:00:00 20,5 12,0 15 8 27 14 ESE - 60 0,0
15.10.2017 14:00:00 19,7 12,7 14 7 25 14 ESE 20 60 -
15.10.2017 13:00:00 18,2 11,8 16 9 29 16 ESE 17 60 0,0
15.10.2017 12:00:00 16,8 11,9 14 7 22 12 ESE 19 60 0,0
15.10.2017 11:00:00 13,7 12,1 9 5 18 10 E 9 30 0,0
15.10.2017 10:00:00 12,3 11,2 7 4 14 8 E 2,2 41 0,0
15.10.2017 09:00:00 10,0 8,9 0 0 3 2 N 2,1 0 0,0
15.10.2017 08:00:00 9,4 8,1 2 1 3 1 W 0,5 0 -
15.10.2017 07:00:00 11,0 9,8 1 1 6 3 N 0,7 0 0,0
15.10.2017 06:00:00 11,6 10,3 4 2 8 4 S 0,9 0 0,0
15.10.2017 05:00:00 - - - - - - - - - -
15.10.2017 04:00:00 12,6 11,4 4 2 12 6 ESE 2,2 0 0,0
15.10.2017 03:00:00 13,0 11,9 8 5 15 8 E 1,4 0 0,0
15.10.2017 02:00:00 13,3 12,2 9 5 18 10 ESE 1,1 0 -
15.10.2017 01:00:00 13,6 12,3 10 5 18 10 ESE - 0 0,0
15.10.2017 00:00:00 13,8 12,3 13 7 23 13 SE 4,7 0 0,0
14.10.2017 23:00:00 14,2 12,7 10 5 19 10 ESE 3,7 0 0,0
14.10.2017 22:00:00 14,8 13,2 13 7 20 11 SE 2,5 0 0,0
14.10.2017 21:00:00 15,1 13,5 10 5 19 11 ESE 3,9 0 0,0
14.10.2017 20:00:00 15,5 13,7 12 7 24 13 ESE 7 0 -
14.10.2017 19:00:00 16,1 13,4 14 8 29 15 SE 12 0 0,0
14.10.2017 18:00:00 17,1 13,1 17 9 30 16 SE 20 0 0,0
14.10.2017 17:00:00 18,8 12,3 20 11 34 18 SE 20 57 0,0
14.10.2017 16:00:00 20,2 11,9 19 10 32 18 ESE 20 60 0,0
14.10.2017 15:00:00 20,0 11,4 21 11 33 18 ESE 20 60 0,0
14.10.2017 14:00:00 19,6 11,9 20 11 32 17 ESE 20 60 -
14.10.2017 13:00:00 18,7 12,0 16 9 27 15 ESE 20 60 0,0
14.10.2017 12:00:00 - - - - - - - - - -
14.10.2017 11:00:00 14,6 11,3 11 6 19 11 E 11 60 0,0
14.10.2017 10:00:00 12,2 11,0 7 4 13 7 SE 4,7 7 0,0
14.10.2017 09:00:00 11,2 10,0 7 4 11 6 ESE 3,2 0 0,0
14.10.2017 08:00:00 11,3 10,2 3 2 7 4 SE - 0 -
14.10.2017 07:00:00 11,6 10,5 2 1 8 4 S 0,3 0 0,0
14.10.2017 06:00:00 12,2 11,1 5 3 10 5 ESE 0,3 0 0,0
14.10.2017 05:00:00 13,0 11,9 6 3 12 7 SE 0,8 0 0,0
14.10.2017 04:00:00 12,7 11,6 4 2 14 7 E - 0 0,0
14.10.2017 03:00:00 13,1 12,0 6 4 15 8 ESE 0,2 0 0,0
14.10.2017 02:00:00 13,7 12,4 11 6 15 8 ESE 0,2 0 -
14.10.2017 01:00:00 14,4 13,2 9 5 19 10 ESE 1,8 0 0,0
14.10.2017 00:00:00 15,0 13,2 13 7 20 11 SSE 3,5 0 0,0
13.10.2017 23:00:00 15,2 13,4 13 7 19 10 SE 4,6 0 0,0
13.10.2017 22:00:00 15,5 13,9 10 5 15 8 ESE 3,6 0 0,0
13.10.2017 21:00:00 16,1 14,2 8 5 16 9 ESE 3,7 0 0,0
13.10.2017 20:00:00 16,7 14,5 9 5 18 10 ESE 7 0 -
13.10.2017 19:00:00 18,3 14,4 9 5 18 10 SE 12 24 0,0
13.10.2017 18:00:00 19,6 13,8 13 7 21 12 SE 18 36 0,0
13.10.2017 17:00:00 21,8 12,3 12 7 24 13 SE - 58 0,0
13.10.2017 16:00:00 22,0 11,4 18 10 29 16 SE - 53 0,0
13.10.2017 15:00:00 22,9 10,0 15 8 30 16 ESE - 60 0,0
13.10.2017 14:00:00 23,6 8,8 16 9 27 15 SE - 60 -
13.10.2017 13:00:00 24,3 7,8 11 6 22 12 ESE - 60 0,0
13.10.2017 12:00:00 24,3 5,1 8 4 16 9 E - 60 0,0
13.10.2017 11:00:00 22,5 3,0 5 3 6 4 SSE - 60 0,0
13.10.2017 10:00:00 16,6 5,0 3 1 10 6 WNW 20 60 0,0
13.10.2017 09:00:00 11,1 4,5 5 3 10 5 WNW 19 2 0,0
13.10.2017 08:00:00 11,8 4,3 5 3 7 4 NW 20 0 -
13.10.2017 07:00:00 12,5 5,6 5 3 9 5 W 20 0 0,0
13.10.2017 06:00:00 - - - - - - - - - -
13.10.2017 05:00:00 10,1 6,2 5 3 9 5 NNW 20 0 0,0
13.10.2017 04:00:00 10,2 6,7 2 1 8 4 NNW 20 0 0,0
13.10.2017 03:00:00 10,2 6,7 5 3 9 5 NW 20 0 0,0
13.10.2017 02:00:00 10,6 7,3 4 2 7 4 NNW 20 0 -
13.10.2017 01:00:00 11,2 8,1 3 2 5 3 NNW 19 0 0,0
13.10.2017 00:00:00 11,7 8,9 3 2 4 2 NW 19 0 0,0
12.10.2017 23:00:00 - - - - - - - - - -
12.10.2017 22:00:00 - - - - - - - - - -
12.10.2017 21:00:00 - - - - - - - - - -
12.10.2017 20:00:00 - - - - - - - - - -
12.10.2017 19:00:00 18,7 13,6 9 5 22 12 ESE 20 58 0,0
12.10.2017 18:00:00 20,5 12,2 13 7 25 13 ESE 20 60 0,0
12.10.2017 17:00:00 21,5 11,2 15 8 29 16 ESE - 60 0,0
12.10.2017 16:00:00 22,1 11,2 13 7 31 17 ESE - 59 0,0
12.10.2017 15:00:00 22,0 11,4 16 9 29 16 ESE - 60 0,0
12.10.2017 14:00:00 22,5 8,5 14 8 26 14 E - 60 -
12.10.2017 13:00:00 22,5 6,7 11 6 23 12 E - 60 0,0
12.10.2017 12:00:00 22,1 1,1 11 6 19 11 E - 60 0,0
12.10.2017 11:00:00 21,9 -2,2 11 6 16 9 WNW - 60 0,0
12.10.2017 10:00:00 16,4 0,0 8 4 11 6 NNW 20 60 0,0
12.10.2017 09:00:00 11,0 -0,5 7 4 11 6 NNW 20 8 0,0
12.10.2017 08:00:00 9,9 -1,0 10 5 13 7 NW 20 0 -
12.10.2017 07:00:00 9,7 -0,5 8 4 11 6 NNW 20 0 0,0

tt = Température de l'air
td = dewpoint
ff = Vitesse du vent
fx = gusts
dd = Direction du vent
vv = visibility
sd = Ensoleillement
rr = Quantités de précipitations

stations d'obs. à proximité